sensor_id;sensor_type;location;lat;lon;timestamp;temperature;humidity
74178;DHT22;62540;48.456;-4.456;2022-09-30T00:01:25;14.53;69.05
74178;DHT22;62540;48.456;-4.456;2022-09-30T00:03:55;14.51;68.97
74178;DHT22;62540;48.456;-4.456;2022-09-30T00:06:23;14.46;69.01
74178;DHT22;62540;48.456;-4.456;2022-09-30T00:08:48;14.47;68.92
74178;DHT22;62540;48.456;-4.456;2022-09-30T00:11:20;14.43;69.19
74178;DHT22;62540;48.456;-4.456;2022-09-30T00:13:48;14.39;69.42
74178;DHT22;62540;48.456;-4.456;2022-09-30T00:16:15;14.39;69.14
74178;DHT22;62540;48.456;-4.456;2022-09-30T00:18:42;14.36;69.16
74178;DHT22;62540;48.456;-4.456;2022-09-30T00:21:09;14.33;69.12
74178;DHT22;62540;48.456;-4.456;2022-09-30T00:23:36;14.33;69.28
74178;DHT22;62540;48.456;-4.456;2022-09-30T00:26:05;14.29;69.32
74178;DHT22;62540;48.456;-4.456;2022-09-30T00:28:31;14.27;69.48
74178;DHT22;62540;48.456;-4.456;2022-09-30T00:31:01;14.25;69.44
74178;DHT22;62540;48.456;-4.456;2022-09-30T00:33:27;14.23;69.51
74178;DHT22;62540;48.456;-4.456;2022-09-30T00:35:53;14.20;69.78
74178;DHT22;62540;48.456;-4.456;2022-09-30T00:38:19;14.20;69.99
74178;DHT22;62540;48.456;-4.456;2022-09-30T00:40:44;14.19;69.89
74178;DHT22;62540;48.456;-4.456;2022-09-30T00:43:19;14.18;69.97
74178;DHT22;62540;48.456;-4.456;2022-09-30T00:45:48;14.20;69.86
74178;DHT22;62540;48.456;-4.456;2022-09-30T00:48:29;14.16;70.02
74178;DHT22;62540;48.456;-4.456;2022-09-30T00:50:56;14.10;70.22
74178;DHT22;62540;48.456;-4.456;2022-09-30T00:56:09;14.02;70.16
74178;DHT22;62540;48.456;-4.456;2022-09-30T01:01:04;13.98;69.71
74178;DHT22;62540;48.456;-4.456;2022-09-30T01:03:35;13.97;69.63
74178;DHT22;62540;48.456;-4.456;2022-09-30T01:06:02;13.94;69.07
74178;DHT22;62540;48.456;-4.456;2022-09-30T01:08:30;13.94;68.57
74178;DHT22;62540;48.456;-4.456;2022-09-30T01:10:56;13.90;68.66
74178;DHT22;62540;48.456;-4.456;2022-09-30T01:13:24;13.89;68.42
74178;DHT22;62540;48.456;-4.456;2022-09-30T01:18:38;13.78;68.24
74178;DHT22;62540;48.456;-4.456;2022-09-30T01:39:49;13.55;68.46
74178;DHT22;62540;48.456;-4.456;2022-09-30T01:42:29;13.54;68.62
74178;DHT22;62540;48.456;-4.456;2022-09-30T01:47:35;13.51;68.96
74178;DHT22;62540;48.456;-4.456;2022-09-30T01:55:25;13.47;69.87
74178;DHT22;62540;48.456;-4.456;2022-09-30T01:58:05;13.40;70.05
74178;DHT22;62540;48.456;-4.456;2022-09-30T02:00:37;13.40;69.98
74178;DHT22;62540;48.456;-4.456;2022-09-30T02:03:09;13.39;70.01
74178;DHT22;62540;48.456;-4.456;2022-09-30T02:05:42;13.36;70.24
74178;DHT22;62540;48.456;-4.456;2022-09-30T02:08:23;13.36;70.36
74178;DHT22;62540;48.456;-4.456;2022-09-30T02:11:05;13.37;70.39
74178;DHT22;62540;48.456;-4.456;2022-09-30T02:13:47;13.33;70.36
74178;DHT22;62540;48.456;-4.456;2022-09-30T02:16:19;13.28;70.61
74178;DHT22;62540;48.456;-4.456;2022-09-30T02:18:49;13.30;70.59
74178;DHT22;62540;48.456;-4.456;2022-09-30T02:21:22;13.27;70.61
74178;DHT22;62540;48.456;-4.456;2022-09-30T02:23:52;13.28;70.56
74178;DHT22;62540;48.456;-4.456;2022-09-30T02:26:24;13.28;70.38
74178;DHT22;62540;48.456;-4.456;2022-09-30T02:29:26;13.27;70.25
74178;DHT22;62540;48.456;-4.456;2022-09-30T02:31:59;13.27;69.97
74178;DHT22;62540;48.456;-4.456;2022-09-30T02:34:30;13.28;69.96
74178;DHT22;62540;48.456;-4.456;2022-09-30T02:37:06;13.26;69.95
74178;DHT22;62540;48.456;-4.456;2022-09-30T02:39:45;13.26;69.81
74178;DHT22;62540;48.456;-4.456;2022-09-30T02:42:20;13.21;69.87
74178;DHT22;62540;48.456;-4.456;2022-09-30T02:44:50;13.21;69.80
74178;DHT22;62540;48.456;-4.456;2022-09-30T02:50:01;13.16;70.30
74178;DHT22;62540;48.456;-4.456;2022-09-30T02:53:02;13.13;69.89
74178;DHT22;62540;48.456;-4.456;2022-09-30T02:56:12;13.10;69.90
74178;DHT22;62540;48.456;-4.456;2022-09-30T02:58:42;13.09;69.83
74178;DHT22;62540;48.456;-4.456;2022-09-30T03:01:10;13.09;70.04
74178;DHT22;62540;48.456;-4.456;2022-09-30T03:03:43;13.07;69.82
74178;DHT22;62540;48.456;-4.456;2022-09-30T03:06:10;13.04;69.70
74178;DHT22;62540;48.456;-4.456;2022-09-30T03:08:36;13.03;69.66
74178;DHT22;62540;48.456;-4.456;2022-09-30T03:11:02;13.03;69.64
74178;DHT22;62540;48.456;-4.456;2022-09-30T03:16:53;12.97;69.75
74178;DHT22;62540;48.456;-4.456;2022-09-30T03:30:40;12.92;69.57
74178;DHT22;62540;48.456;-4.456;2022-09-30T03:33:15;12.92;69.56
74178;DHT22;62540;48.456;-4.456;2022-09-30T03:35:46;12.90;69.68
74178;DHT22;62540;48.456;-4.456;2022-09-30T03:38:33;12.90;69.86
74178;DHT22;62540;48.456;-4.456;2022-09-30T03:41:27;12.90;70.13
74178;DHT22;62540;48.456;-4.456;2022-09-30T03:44:06;12.89;70.40
74178;DHT22;62540;48.456;-4.456;2022-09-30T03:46:53;12.89;70.60
74178;DHT22;62540;48.456;-4.456;2022-09-30T03:49:27;12.90;70.77
74178;DHT22;62540;48.456;-4.456;2022-09-30T03:51:55;12.95;71.18
74178;DHT22;62540;48.456;-4.456;2022-09-30T03:54:21;12.96;71.34
74178;DHT22;62540;48.456;-4.456;2022-09-30T03:56:47;12.97;71.56
74178;DHT22;62540;48.456;-4.456;2022-09-30T03:59:20;12.99;71.76
74178;DHT22;62540;48.456;-4.456;2022-09-30T04:01:47;13.03;72.03
74178;DHT22;62540;48.456;-4.456;2022-09-30T04:04:12;13.07;72.31
74178;DHT22;62540;48.456;-4.456;2022-09-30T04:06:38;13.11;72.23
74178;DHT22;62540;48.456;-4.456;2022-09-30T04:09:03;13.14;72.43
74178;DHT22;62540;48.456;-4.456;2022-09-30T04:11:28;13.20;72.37
74178;DHT22;62540;48.456;-4.456;2022-09-30T04:13:54;13.24;72.73
74178;DHT22;62540;48.456;-4.456;2022-09-30T04:16:19;13.27;72.62
74178;DHT22;62540;48.456;-4.456;2022-09-30T04:18:45;13.28;72.70
74178;DHT22;62540;48.456;-4.456;2022-09-30T04:21:12;13.34;72.59
74178;DHT22;62540;48.456;-4.456;2022-09-30T04:23:40;13.41;72.84
74178;DHT22;62540;48.456;-4.456;2022-09-30T04:26:09;13.46;72.97
74178;DHT22;62540;48.456;-4.456;2022-09-30T04:28:35;13.47;73.16
74178;DHT22;62540;48.456;-4.456;2022-09-30T04:31:02;13.50;73.19
74178;DHT22;62540;48.456;-4.456;2022-09-30T04:33:27;13.54;73.09
74178;DHT22;62540;48.456;-4.456;2022-09-30T04:35:54;13.57;73.05
74178;DHT22;62540;48.456;-4.456;2022-09-30T04:38:20;13.60;73.11
74178;DHT22;62540;48.456;-4.456;2022-09-30T04:40:45;13.64;73.26
74178;DHT22;62540;48.456;-4.456;2022-09-30T04:43:13;13.69;73.10
74178;DHT22;62540;48.456;-4.456;2022-09-30T04:45:42;13.69;73.35
74178;DHT22;62540;48.456;-4.456;2022-09-30T04:48:08;13.72;73.37
74178;DHT22;62540;48.456;-4.456;2022-09-30T04:50:34;13.77;73.56
74178;DHT22;62540;48.456;-4.456;2022-09-30T04:52:59;13.82;73.70
74178;DHT22;62540;48.456;-4.456;2022-09-30T04:55:25;13.86;73.74
74178;DHT22;62540;48.456;-4.456;2022-09-30T04:57:50;13.88;73.63
74178;DHT22;62540;48.456;-4.456;2022-09-30T05:00:15;13.92;74.18
74178;DHT22;62540;48.456;-4.456;2022-09-30T05:02:44;13.98;74.21
74178;DHT22;62540;48.456;-4.456;2022-09-30T05:05:09;14.01;74.05
74178;DHT22;62540;48.456;-4.456;2022-09-30T05:07:35;14.05;74.00
74178;DHT22;62540;48.456;-4.456;2022-09-30T05:10:00;14.06;73.97
74178;DHT22;62540;48.456;-4.456;2022-09-30T05:12:26;14.09;74.12
74178;DHT22;62540;48.456;-4.456;2022-09-30T05:14:51;14.12;74.26
74178;DHT22;62540;48.456;-4.456;2022-09-30T05:17:17;14.15;74.48
74178;DHT22;62540;48.456;-4.456;2022-09-30T05:19:42;14.16;74.33
74178;DHT22;62540;48.456;-4.456;2022-09-30T05:22:07;14.22;74.38
74178;DHT22;62540;48.456;-4.456;2022-09-30T05:24:33;14.26;74.36
74178;DHT22;62540;48.456;-4.456;2022-09-30T05:26:58;14.27;74.36
74178;DHT22;62540;48.456;-4.456;2022-09-30T05:29:24;14.34;74.22
74178;DHT22;62540;48.456;-4.456;2022-09-30T05:31:49;14.34;74.43
74178;DHT22;62540;48.456;-4.456;2022-09-30T05:34:14;14.39;74.45
74178;DHT22;62540;48.456;-4.456;2022-09-30T05:36:42;14.43;74.52
74178;DHT22;62540;48.456;-4.456;2022-09-30T05:39:09;14.43;74.48
74178;DHT22;62540;48.456;-4.456;2022-09-30T05:41:34;14.44;74.31
74178;DHT22;62540;48.456;-4.456;2022-09-30T05:44:00;14.48;74.33
74178;DHT22;62540;48.456;-4.456;2022-09-30T05:46:26;14.51;74.08
74178;DHT22;62540;48.456;-4.456;2022-09-30T05:48:52;14.53;74.27
74178;DHT22;62540;48.456;-4.456;2022-09-30T05:51:21;14.53;74.43
74178;DHT22;62540;48.456;-4.456;2022-09-30T05:53:47;14.57;74.45
74178;DHT22;62540;48.456;-4.456;2022-09-30T05:56:12;14.59;74.27
74178;DHT22;62540;48.456;-4.456;2022-09-30T05:58:39;14.56;74.63
74178;DHT22;62540;48.456;-4.456;2022-09-30T06:01:12;14.48;75.01
74178;DHT22;62540;48.456;-4.456;2022-09-30T06:03:38;14.43;75.33
74178;DHT22;62540;48.456;-4.456;2022-09-30T06:06:05;14.41;76.13
74178;DHT22;62540;48.456;-4.456;2022-09-30T06:08:31;14.34;75.90
74178;DHT22;62540;48.456;-4.456;2022-09-30T06:10:56;14.36;75.63
74178;DHT22;62540;48.456;-4.456;2022-09-30T06:13:26;14.34;75.75
74178;DHT22;62540;48.456;-4.456;2022-09-30T06:16:00;14.33;75.82
74178;DHT22;62540;48.456;-4.456;2022-09-30T06:18:28;14.39;75.84
74178;DHT22;62540;48.456;-4.456;2022-09-30T06:20:58;14.41;75.90
74178;DHT22;62540;48.456;-4.456;2022-09-30T06:23:25;14.41;75.77
74178;DHT22;62540;48.456;-4.456;2022-09-30T06:25:51;14.46;75.91
74178;DHT22;62540;48.456;-4.456;2022-09-30T06:28:17;14.48;75.69
74178;DHT22;62540;48.456;-4.456;2022-09-30T06:30:43;14.47;76.46
74178;DHT22;62540;48.456;-4.456;2022-09-30T06:33:08;14.44;76.08
74178;DHT22;62540;48.456;-4.456;2022-09-30T06:35:34;14.46;76.05
74178;DHT22;62540;48.456;-4.456;2022-09-30T06:37:59;14.48;76.10
74178;DHT22;62540;48.456;-4.456;2022-09-30T06:40:24;14.46;76.10
74178;DHT22;62540;48.456;-4.456;2022-09-30T06:42:50;14.51;76.21
74178;DHT22;62540;48.456;-4.456;2022-09-30T06:45:16;14.59;76.29
74178;DHT22;62540;48.456;-4.456;2022-09-30T06:47:46;14.61;76.28
74178;DHT22;62540;48.456;-4.456;2022-09-30T06:50:12;14.57;76.49
74178;DHT22;62540;48.456;-4.456;2022-09-30T06:52:37;14.64;76.71
74178;DHT22;62540;48.456;-4.456;2022-09-30T06:55:03;14.68;76.98
74178;DHT22;62540;48.456;-4.456;2022-09-30T06:57:28;14.73;76.98
74178;DHT22;62540;48.456;-4.456;2022-09-30T06:59:54;14.83;76.78
74178;DHT22;62540;48.456;-4.456;2022-09-30T07:02:20;14.88;76.78
74178;DHT22;62540;48.456;-4.456;2022-09-30T07:04:46;14.88;77.34
74178;DHT22;62540;48.456;-4.456;2022-09-30T07:07:12;14.84;77.22
74178;DHT22;62540;48.456;-4.456;2022-09-30T07:09:37;14.89;77.73
74178;DHT22;62540;48.456;-4.456;2022-09-30T07:12:03;14.89;78.48
74178;DHT22;62540;48.456;-4.456;2022-09-30T07:14:30;14.94;77.66
74178;DHT22;62540;48.456;-4.456;2022-09-30T07:16:56;14.97;77.77
74178;DHT22;62540;48.456;-4.456;2022-09-30T07:19:22;14.98;78.05
74178;DHT22;62540;48.456;-4.456;2022-09-30T07:21:48;15.05;77.97
74178;DHT22;62540;48.456;-4.456;2022-09-30T07:24:14;15.21;78.05
74178;DHT22;62540;48.456;-4.456;2022-09-30T07:26:39;15.35;77.99
74178;DHT22;62540;48.456;-4.456;2022-09-30T07:29:05;15.46;77.69
74178;DHT22;62540;48.456;-4.456;2022-09-30T07:31:31;15.59;77.50
74178;DHT22;62540;48.456;-4.456;2022-09-30T07:33:58;15.69;77.25
74178;DHT22;62540;48.456;-4.456;2022-09-30T07:36:24;15.76;77.26
74178;DHT22;62540;48.456;-4.456;2022-09-30T07:39:02;15.82;77.74
74178;DHT22;62540;48.456;-4.456;2022-09-30T07:41:29;15.86;77.45
74178;DHT22;62540;48.456;-4.456;2022-09-30T07:43:56;15.86;76.97
74178;DHT22;62540;48.456;-4.456;2022-09-30T07:46:26;15.90;76.89
74178;DHT22;62540;48.456;-4.456;2022-09-30T07:48:55;15.91;77.02
74178;DHT22;62540;48.456;-4.456;2022-09-30T07:51:35;15.87;77.17
74178;DHT22;62540;48.456;-4.456;2022-09-30T07:54:03;15.83;77.33
74178;DHT22;62540;48.456;-4.456;2022-09-30T07:56:30;15.82;77.11
74178;DHT22;62540;48.456;-4.456;2022-09-30T07:58:59;15.84;77.13
74178;DHT22;62540;48.456;-4.456;2022-09-30T08:01:26;15.86;77.25
74178;DHT22;62540;48.456;-4.456;2022-09-30T08:03:57;15.90;77.07
74178;DHT22;62540;48.456;-4.456;2022-09-30T08:06:23;15.90;77.36
74178;DHT22;62540;48.456;-4.456;2022-09-30T08:08:52;15.91;77.32
74178;DHT22;62540;48.456;-4.456;2022-09-30T08:11:17;15.96;77.33
74178;DHT22;62540;48.456;-4.456;2022-09-30T08:13:43;16.00;77.16
74178;DHT22;62540;48.456;-4.456;2022-09-30T08:16:08;16.12;77.36
74178;DHT22;62540;48.456;-4.456;2022-09-30T08:18:34;16.21;77.63
74178;DHT22;62540;48.456;-4.456;2022-09-30T08:21:04;16.40;77.50
74178;DHT22;62540;48.456;-4.456;2022-09-30T08:23:31;16.55;77.01
74178;DHT22;62540;48.456;-4.456;2022-09-30T08:26:07;16.68;77.52
74178;DHT22;62540;48.456;-4.456;2022-09-30T08:28:34;16.73;76.99
74178;DHT22;62540;48.456;-4.456;2022-09-30T08:31:11;16.83;76.88
74178;DHT22;62540;48.456;-4.456;2022-09-30T08:33:38;16.80;76.38
74178;DHT22;62540;48.456;-4.456;2022-09-30T08:36:15;16.77;76.27
74178;DHT22;62540;48.456;-4.456;2022-09-30T08:38:41;16.77;76.20
74178;DHT22;62540;48.456;-4.456;2022-09-30T08:51:08;16.75;76.64
74178;DHT22;62540;48.456;-4.456;2022-09-30T08:53:41;16.80;76.22
74178;DHT22;62540;48.456;-4.456;2022-09-30T08:56:14;16.89;75.80
74178;DHT22;62540;48.456;-4.456;2022-09-30T08:58:44;16.94;75.65
74178;DHT22;62540;48.456;-4.456;2022-09-30T09:01:16;17.06;75.56
74178;DHT22;62540;48.456;-4.456;2022-09-30T09:03:44;17.09;75.38
74178;DHT22;62540;48.456;-4.456;2022-09-30T09:20:28;17.19;75.31
74178;DHT22;62540;48.456;-4.456;2022-09-30T09:22:56;17.26;75.31
74178;DHT22;62540;48.456;-4.456;2022-09-30T09:25:26;17.31;75.19
74178;DHT22;62540;48.456;-4.456;2022-09-30T09:27:56;17.38;74.92
74178;DHT22;62540;48.456;-4.456;2022-09-30T09:30:24;17.40;74.77
74178;DHT22;62540;48.456;-4.456;2022-09-30T09:32:53;17.40;74.82
74178;DHT22;62540;48.456;-4.456;2022-09-30T09:43:50;17.59;74.85
74178;DHT22;62540;48.456;-4.456;2022-09-30T09:46:48;17.62;75.11
74178;DHT22;62540;48.456;-4.456;2022-09-30T09:52:26;17.64;75.04
74178;DHT22;62540;48.456;-4.456;2022-09-30T09:54:53;17.68;74.71
74178;DHT22;62540;48.456;-4.456;2022-09-30T09:57:22;17.72;74.36
74178;DHT22;62540;48.456;-4.456;2022-09-30T10:00:04;17.72;73.85
74178;DHT22;62540;48.456;-4.456;2022-09-30T10:03:10;17.77;73.57
74178;DHT22;62540;48.456;-4.456;2022-09-30T10:05:37;17.79;73.45
74178;DHT22;62540;48.456;-4.456;2022-09-30T10:08:17;17.82;73.44
74178;DHT22;62540;48.456;-4.456;2022-09-30T10:10:46;17.81;73.64
74178;DHT22;62540;48.456;-4.456;2022-09-30T10:13:26;17.90;73.39
74178;DHT22;62540;48.456;-4.456;2022-09-30T10:15:55;17.85;73.35
74178;DHT22;62540;48.456;-4.456;2022-09-30T10:18:31;17.81;73.56
74178;DHT22;62540;48.456;-4.456;2022-09-30T10:20:59;17.77;72.63
74178;DHT22;62540;48.456;-4.456;2022-09-30T10:23:31;17.72;73.17
74178;DHT22;62540;48.456;-4.456;2022-09-30T10:26:18;17.69;72.94
74178;DHT22;62540;48.456;-4.456;2022-09-30T10:29:01;17.72;73.08
74178;DHT22;62540;48.456;-4.456;2022-09-30T10:31:39;17.69;72.77
74178;DHT22;62540;48.456;-4.456;2022-09-30T10:36:51;17.62;72.17
74178;DHT22;62540;48.456;-4.456;2022-09-30T10:41:50;17.58;72.47
74178;DHT22;62540;48.456;-4.456;2022-09-30T10:44:21;17.59;72.35
74178;DHT22;62540;48.456;-4.456;2022-09-30T10:46:49;17.55;72.18
74178;DHT22;62540;48.456;-4.456;2022-09-30T10:49:26;17.55;71.83
74178;DHT22;62540;48.456;-4.456;2022-09-30T10:51:54;17.58;71.71
74178;DHT22;62540;48.456;-4.456;2022-09-30T10:57:28;17.64;71.25
74178;DHT22;62540;48.456;-4.456;2022-09-30T11:00:17;17.72;71.32
74178;DHT22;62540;48.456;-4.456;2022-09-30T11:03:06;17.77;70.78
74178;DHT22;62540;48.456;-4.456;2022-09-30T11:05:40;17.85;70.75
74178;DHT22;62540;48.456;-4.456;2022-09-30T11:11:10;17.92;70.34
74178;DHT22;62540;48.456;-4.456;2022-09-30T11:19:26;18.10;68.37
74178;DHT22;62540;48.456;-4.456;2022-09-30T11:24:49;18.27;67.37
74178;DHT22;62540;48.456;-4.456;2022-09-30T11:30:18;18.41;66.89
74178;DHT22;62540;48.456;-4.456;2022-09-30T11:33:03;18.51;67.08
74178;DHT22;62540;48.456;-4.456;2022-09-30T11:52:24;18.53;66.51
74178;DHT22;62540;48.456;-4.456;2022-09-30T11:57:47;18.47;66.83
74178;DHT22;62540;48.456;-4.456;2022-09-30T12:00:17;18.43;66.10
74178;DHT22;62540;48.456;-4.456;2022-09-30T12:02:52;18.34;66.58
74178;DHT22;62540;48.456;-4.456;2022-09-30T12:05:34;18.37;66.83
74178;DHT22;62540;48.456;-4.456;2022-09-30T12:08:10;18.41;66.93
74178;DHT22;62540;48.456;-4.456;2022-09-30T12:10:42;18.46;66.88
74178;DHT22;62540;48.456;-4.456;2022-09-30T12:13:39;18.60;67.10
74178;DHT22;62540;48.456;-4.456;2022-09-30T12:16:15;18.67;67.23
74178;DHT22;62540;48.456;-4.456;2022-09-30T12:18:43;18.75;66.97
74178;DHT22;62540;48.456;-4.456;2022-09-30T12:23:53;18.78;66.52
74178;DHT22;62540;48.456;-4.456;2022-09-30T12:26:19;18.81;66.48
74178;DHT22;62540;48.456;-4.456;2022-09-30T12:29:01;18.85;66.23
74178;DHT22;62540;48.456;-4.456;2022-09-30T12:32:13;18.69;66.38
74178;DHT22;62540;48.456;-4.456;2022-09-30T12:40:27;18.53;67.88
74178;DHT22;62540;48.456;-4.456;2022-09-30T12:48:32;18.29;69.28
74178;DHT22;62540;48.456;-4.456;2022-09-30T12:50:59;18.36;69.49
74178;DHT22;62540;48.456;-4.456;2022-09-30T12:53:31;18.34;69.02
74178;DHT22;62540;48.456;-4.456;2022-09-30T12:56:06;18.33;69.32
74178;DHT22;62540;48.456;-4.456;2022-09-30T12:58:40;18.38;68.95
74178;DHT22;62540;48.456;-4.456;2022-09-30T13:01:27;18.36;68.90
74178;DHT22;62540;48.456;-4.456;2022-09-30T13:19:39;18.30;69.22
74178;DHT22;62540;48.456;-4.456;2022-09-30T13:30:30;18.13;70.16
74178;DHT22;62540;48.456;-4.456;2022-09-30T13:35:47;18.06;70.34
74178;DHT22;62540;48.456;-4.456;2022-09-30T13:40:56;17.99;70.92
74178;DHT22;62540;48.456;-4.456;2022-09-30T13:45:58;17.96;70.51
74178;DHT22;62540;48.456;-4.456;2022-09-30T13:48:34;17.90;70.88
74178;DHT22;62540;48.456;-4.456;2022-09-30T13:51:05;17.89;71.18
74178;DHT22;62540;48.456;-4.456;2022-09-30T13:54:04;17.96;70.77
74178;DHT22;62540;48.456;-4.456;2022-09-30T13:56:35;18.00;70.34
74178;DHT22;62540;48.456;-4.456;2022-09-30T14:02:01;18.14;70.11
74178;DHT22;62540;48.456;-4.456;2022-09-30T14:10:20;18.19;69.23
74178;DHT22;62540;48.456;-4.456;2022-09-30T14:15:34;18.14;69.55
74178;DHT22;62540;48.456;-4.456;2022-09-30T14:18:36;18.16;69.87
74178;DHT22;62540;48.456;-4.456;2022-09-30T14:24:26;18.13;69.50
74178;DHT22;62540;48.456;-4.456;2022-09-30T14:32:24;18.12;69.54
74178;DHT22;62540;48.456;-4.456;2022-09-30T14:34:51;18.09;69.77
74178;DHT22;62540;48.456;-4.456;2022-09-30T14:37:23;18.06;70.18
74178;DHT22;62540;48.456;-4.456;2022-09-30T14:39:50;18.02;70.22
74178;DHT22;62540;48.456;-4.456;2022-09-30T14:42:23;18.00;70.41
74178;DHT22;62540;48.456;-4.456;2022-09-30T14:44:50;17.89;70.73
74178;DHT22;62540;48.456;-4.456;2022-09-30T14:47:18;17.89;71.27
74178;DHT22;62540;48.456;-4.456;2022-09-30T14:49:47;17.88;72.00
74178;DHT22;62540;48.456;-4.456;2022-09-30T14:52:36;17.81;72.26
74178;DHT22;62540;48.456;-4.456;2022-09-30T14:55:03;17.78;73.21
74178;DHT22;62540;48.456;-4.456;2022-09-30T14:57:29;17.72;73.89
74178;DHT22;62540;48.456;-4.456;2022-09-30T15:00:18;17.71;74.41
74178;DHT22;62540;48.456;-4.456;2022-09-30T15:02:44;17.71;75.12
74178;DHT22;62540;48.456;-4.456;2022-09-30T15:05:12;17.65;75.90
74178;DHT22;62540;48.456;-4.456;2022-09-30T15:07:40;17.61;76.20
74178;DHT22;62540;48.456;-4.456;2022-09-30T15:10:06;17.58;76.62
74178;DHT22;62540;48.456;-4.456;2022-09-30T15:12:32;17.54;76.80
74178;DHT22;62540;48.456;-4.456;2022-09-30T15:15:22;17.54;76.77
74178;DHT22;62540;48.456;-4.456;2022-09-30T15:17:48;17.55;76.96
74178;DHT22;62540;48.456;-4.456;2022-09-30T15:20:36;17.54;76.89
74178;DHT22;62540;48.456;-4.456;2022-09-30T15:23:06;17.52;76.96
74178;DHT22;62540;48.456;-4.456;2022-09-30T15:25:34;17.47;77.10
74178;DHT22;62540;48.456;-4.456;2022-09-30T15:27:59;17.44;77.42
74178;DHT22;62540;48.456;-4.456;2022-09-30T15:30:27;17.47;77.72
74178;DHT22;62540;48.456;-4.456;2022-09-30T15:32:58;17.40;77.87
74178;DHT22;62540;48.456;-4.456;2022-09-30T15:35:24;17.41;78.13
74178;DHT22;62540;48.456;-4.456;2022-09-30T15:37:50;17.44;78.07
74178;DHT22;62540;48.456;-4.456;2022-09-30T15:40:21;17.45;78.52
74178;DHT22;62540;48.456;-4.456;2022-09-30T15:43:08;17.44;78.61
74178;DHT22;62540;48.456;-4.456;2022-09-30T15:45:37;17.42;79.25
74178;DHT22;62540;48.456;-4.456;2022-09-30T15:50:55;17.42;79.21
74178;DHT22;62540;48.456;-4.456;2022-09-30T15:53:28;17.41;79.37
74178;DHT22;62540;48.456;-4.456;2022-09-30T15:58:40;17.42;79.04
74178;DHT22;62540;48.456;-4.456;2022-09-30T16:01:18;17.41;79.46
74178;DHT22;62540;48.456;-4.456;2022-09-30T16:03:57;17.31;80.10
74178;DHT22;62540;48.456;-4.456;2022-09-30T16:08:58;17.37;79.48
74178;DHT22;62540;48.456;-4.456;2022-09-30T16:11:39;17.37;80.15
74178;DHT22;62540;48.456;-4.456;2022-09-30T16:14:09;17.34;80.27
74178;DHT22;62540;48.456;-4.456;2022-09-30T16:16:36;17.31;80.79
74178;DHT22;62540;48.456;-4.456;2022-09-30T16:19:03;17.27;80.35
74178;DHT22;62540;48.456;-4.456;2022-09-30T16:21:39;17.34;80.79
74178;DHT22;62540;48.456;-4.456;2022-09-30T16:26:53;17.32;81.12
74178;DHT22;62540;48.456;-4.456;2022-09-30T16:29:20;17.28;81.36
74178;DHT22;62540;48.456;-4.456;2022-09-30T16:31:48;17.31;81.66
74178;DHT22;62540;48.456;-4.456;2022-09-30T16:34:21;17.30;81.68
74178;DHT22;62540;48.456;-4.456;2022-09-30T16:36:48;17.27;82.01
74178;DHT22;62540;48.456;-4.456;2022-09-30T16:39:14;17.30;81.81
74178;DHT22;62540;48.456;-4.456;2022-09-30T16:41:41;17.31;81.70
74178;DHT22;62540;48.456;-4.456;2022-09-30T16:44:07;17.31;81.50
74178;DHT22;62540;48.456;-4.456;2022-09-30T16:46:33;17.32;82.02
74178;DHT22;62540;48.456;-4.456;2022-09-30T16:49:00;17.31;82.24
74178;DHT22;62540;48.456;-4.456;2022-09-30T16:51:35;17.28;82.60
74178;DHT22;62540;48.456;-4.456;2022-09-30T16:54:00;17.26;82.42
74178;DHT22;62540;48.456;-4.456;2022-09-30T16:56:26;17.27;81.64
74178;DHT22;62540;48.456;-4.456;2022-09-30T16:58:52;17.26;82.49
74178;DHT22;62540;48.456;-4.456;2022-09-30T17:01:19;17.26;82.01
74178;DHT22;62540;48.456;-4.456;2022-09-30T17:03:45;17.26;82.16
74178;DHT22;62540;48.456;-4.456;2022-09-30T17:06:11;17.23;82.43
74178;DHT22;62540;48.456;-4.456;2022-09-30T17:08:37;17.26;82.55
74178;DHT22;62540;48.456;-4.456;2022-09-30T17:11:02;17.19;83.17
74178;DHT22;62540;48.456;-4.456;2022-09-30T17:13:28;17.21;83.02
74178;DHT22;62540;48.456;-4.456;2022-09-30T17:15:55;17.21;82.58
74178;DHT22;62540;48.456;-4.456;2022-09-30T17:18:21;17.23;83.24
74178;DHT22;62540;48.456;-4.456;2022-09-30T17:20:47;17.26;82.83
74178;DHT22;62540;48.456;-4.456;2022-09-30T17:23:20;17.24;82.76
74178;DHT22;62540;48.456;-4.456;2022-09-30T17:25:46;17.30;82.31
74178;DHT22;62540;48.456;-4.456;2022-09-30T17:28:13;17.31;82.83
74178;DHT22;62540;48.456;-4.456;2022-09-30T17:30:39;17.30;82.89
74178;DHT22;62540;48.456;-4.456;2022-09-30T17:33:06;17.24;83.48
74178;DHT22;62540;48.456;-4.456;2022-09-30T17:35:34;17.28;83.39
74178;DHT22;62540;48.456;-4.456;2022-09-30T17:38:00;17.27;83.27
74178;DHT22;62540;48.456;-4.456;2022-09-30T17:40:25;17.30;83.54
74178;DHT22;62540;48.456;-4.456;2022-09-30T17:43:10;17.34;83.12
74178;DHT22;62540;48.456;-4.456;2022-09-30T17:45:38;17.38;82.78
74178;DHT22;62540;48.456;-4.456;2022-09-30T17:48:05;17.35;83.56
74178;DHT22;62540;48.456;-4.456;2022-09-30T17:50:32;17.32;83.62
74178;DHT22;62540;48.456;-4.456;2022-09-30T17:52:58;17.40;83.44
74178;DHT22;62540;48.456;-4.456;2022-09-30T17:55:23;17.35;83.20
74178;DHT22;62540;48.456;-4.456;2022-09-30T17:57:49;17.38;83.23
74178;DHT22;62540;48.456;-4.456;2022-09-30T18:00:14;17.41;82.93
74178;DHT22;62540;48.456;-4.456;2022-09-30T18:02:41;17.41;83.33
74178;DHT22;62540;48.456;-4.456;2022-09-30T18:05:09;17.48;82.75
74178;DHT22;62540;48.456;-4.456;2022-09-30T18:07:34;17.47;83.38
74178;DHT22;62540;48.456;-4.456;2022-09-30T18:09:59;17.55;81.88
74178;DHT22;62540;48.456;-4.456;2022-09-30T18:12:26;17.58;82.64
74178;DHT22;62540;48.456;-4.456;2022-09-30T18:14:52;17.57;82.69
74178;DHT22;62540;48.456;-4.456;2022-09-30T18:17:19;17.55;83.42
74178;DHT22;62540;48.456;-4.456;2022-09-30T18:19:44;17.51;83.28
74178;DHT22;62540;48.456;-4.456;2022-09-30T18:22:10;17.58;83.43
74178;DHT22;62540;48.456;-4.456;2022-09-30T18:24:35;17.62;83.13
74178;DHT22;62540;48.456;-4.456;2022-09-30T18:27:19;17.67;83.38
74178;DHT22;62540;48.456;-4.456;2022-09-30T18:29:47;17.62;83.00
74178;DHT22;62540;48.456;-4.456;2022-09-30T18:32:12;17.67;83.21
74178;DHT22;62540;48.456;-4.456;2022-09-30T18:34:37;17.68;83.51
74178;DHT22;62540;48.456;-4.456;2022-09-30T18:37:03;17.67;83.39
74178;DHT22;62540;48.456;-4.456;2022-09-30T18:39:30;17.71;83.30
74178;DHT22;62540;48.456;-4.456;2022-09-30T18:41:57;17.78;83.19
74178;DHT22;62540;48.456;-4.456;2022-09-30T18:44:24;17.82;83.39
74178;DHT22;62540;48.456;-4.456;2022-09-30T18:46:50;17.82;83.35
74178;DHT22;62540;48.456;-4.456;2022-09-30T18:49:17;17.83;83.30
74178;DHT22;62540;48.456;-4.456;2022-09-30T18:51:42;17.85;83.65
74178;DHT22;62540;48.456;-4.456;2022-09-30T18:54:08;17.90;83.46
74178;DHT22;62540;48.456;-4.456;2022-09-30T18:56:35;17.96;83.16
74178;DHT22;62540;48.456;-4.456;2022-09-30T18:59:02;17.99;82.95
74178;DHT22;62540;48.456;-4.456;2022-09-30T19:01:29;18.02;83.29